This is the latest recevied weather packets stored in our database for station/object IW2HNF-3. If no packets are shown the sender has not sent any weather packets the latest 10 day(s).
| Time | Temp. | Humidity | Pressure | Rain* | Wind** | Luminosity | Snow |
|---|---|---|---|---|---|---|---|
| 1777974661 | 12.78° C | 93% | 1012.3 hPa | 1.02 mm | - | - | - |
| 1777974038 | 12.78° C | 93% | 1012.2 hPa | 0.51 mm | - | - | - |
| 1777973462 | 12.78° C | 93% | 1012.1 hPa | 0.25 mm | - | - | - |
| 1777972838 | 12.78° C | 93% | 1012.1 hPa | 0.51 mm | - | - | - |
| 1777972262 | 12.78° C | 92% | 1012.1 hPa | 0.51 mm | - | - | - |
| 1777971639 | 12.78° C | 92% | 1012.1 hPa | 1.02 mm | - | - | - |
| 1777969862 | 12.78° C | 93% | 1011.9 hPa | 1.78 mm | - | - | - |
| 1777969238 | 12.78° C | 94% | 1011.9 hPa | 2.03 mm | - | - | - |
| 1777968662 | 12.78° C | 94% | 1011.9 hPa | 2.29 mm | - | - | - |
| 1777968326 | 12.78° C | 94% | 1011.8 hPa | 3.3 mm | - | - | - |
| 1777967462 | 12.78° C | 95% | 1011.8 hPa | 4.57 mm | - | - | - |
| 1777966839 | 12.78° C | 95% | 1011.7 hPa | 4.83 mm | - | - | - |
| 1777966262 | 12.78° C | 94% | 1011.7 hPa | 5.33 mm | - | - | - |
| 1777965638 | 12.78° C | 94% | 1011.7 hPa | 5.33 mm | - | - | - |
| 1777965063 | 12.78° C | 93% | 1011.7 hPa | 5.33 mm | - | - | - |
| 1777964438 | 12.78° C | 92% | 1011.7 hPa | 4.57 mm | - | - | - |
| 1777963862 | 12.78° C | 90% | 1011.8 hPa | 3.56 mm | - | - | - |
| 1777963238 | 12.78° C | 87% | 1011.8 hPa | 2.79 mm | - | - | - |
| 1777962662 | 12.78° C | 85% | 1011.9 hPa | 1.78 mm | - | - | - |
| 1777962040 | 13.33° C | 83% | 1011.9 hPa | 1.27 mm | - | - | - |
| 1777961462 | 13.33° C | 82% | 1011.7 hPa | 0.51 mm | - | - | - |
| 1777961271 | 13.33° C | 81% | 1011.7 hPa | 0.25 mm | - | - | - |
| 1777960262 | 13.33° C | 77% | 1011.5 hPa | 0 mm | - | - | - |
| 1777959638 | 13.33° C | 76% | 1011.3 hPa | 0 mm | - | - | - |
| 1777959062 | 13.89° C | 75% | 1011.1 hPa | 0 mm | - | - | - |
* Rain latest hour (hover to see other rain measurements)
** Current wind speed in m/s (hover to see current wind gust speed)